createdAt,value
2018-02-03T00:02:22.990Z,7.60
2018-02-03T00:04:53.705Z,5.87
2018-02-03T00:07:24.791Z,9.30
2018-02-03T00:09:55.147Z,7.00
2018-02-03T00:12:25.511Z,14.40
2018-02-03T00:14:56.376Z,5.50
2018-02-03T00:17:26.794Z,9.07
2018-02-03T00:19:57.148Z,9.13
2018-02-03T00:22:27.368Z,9.30
2018-02-03T00:24:58.223Z,7.37
2018-02-03T00:27:28.599Z,6.17
2018-02-03T00:29:58.815Z,6.87
2018-02-03T00:32:29.356Z,8.17
2018-02-03T00:34:59.475Z,9.03
2018-02-03T00:37:29.572Z,4.67
2018-02-03T00:39:59.890Z,8.80
2018-02-03T00:42:30.567Z,9.63
2018-02-03T00:45:00.719Z,8.50
2018-02-03T00:47:31.754Z,9.13
2018-02-03T00:50:02.164Z,5.30
2018-02-03T00:52:32.745Z,12.00
2018-02-03T00:55:03.119Z,6.77
2018-02-03T00:57:33.384Z,7.27
2018-02-03T01:00:04.224Z,8.77
2018-02-03T01:02:34.467Z,6.23
2018-02-03T01:05:04.452Z,10.63
2018-02-03T01:07:35.517Z,5.50
2018-02-03T01:10:06.264Z,4.70
2018-02-03T01:12:36.663Z,10.53
2018-02-03T01:15:06.982Z,3.90
2018-02-03T01:17:37.623Z,5.60
2018-02-03T01:20:08.592Z,10.07
2018-02-03T01:22:38.862Z,8.00
2018-02-03T01:25:09.592Z,8.03
2018-02-03T01:27:40.554Z,6.50
2018-02-03T01:30:11.055Z,6.03
2018-02-03T01:32:41.668Z,4.87
2018-02-03T01:35:12.017Z,11.00
2018-02-03T01:37:43.031Z,6.57
2018-02-03T01:40:13.650Z,8.60
2018-02-03T01:42:44.072Z,7.03
2018-02-03T01:45:14.320Z,8.53
2018-02-03T01:47:53.936Z,7.87
2018-02-03T01:50:24.131Z,9.10
2018-02-03T01:52:54.659Z,5.40
2018-02-03T01:55:24.878Z,7.60
2018-02-03T01:57:55.131Z,7.13
2018-02-03T02:00:25.185Z,9.83
2018-02-03T02:02:55.583Z,8.63
2018-02-03T02:05:25.966Z,16.10
2018-02-03T02:07:56.314Z,8.30
2018-02-03T02:10:26.846Z,15.10
2018-02-03T02:12:57.559Z,35.60
2018-02-03T02:15:27.772Z,7.33
2018-02-03T02:17:57.775Z,4.83
2018-02-03T02:20:27.782Z,6.27
2018-02-03T02:22:58.663Z,5.27
2018-02-03T02:25:28.990Z,7.40
2018-02-03T02:27:59.326Z,6.70
2018-02-03T02:30:29.347Z,4.80
2018-02-03T02:32:59.971Z,3.27
2018-02-03T02:35:30.893Z,4.57
2018-02-03T02:38:00.908Z,15.77
2018-02-03T02:40:31.359Z,3.13
2018-02-03T02:43:02.687Z,4.50
2018-02-03T02:45:32.875Z,4.07
2018-02-03T02:48:02.995Z,5.43
2018-02-03T02:50:33.485Z,5.27
2018-02-03T02:53:05.025Z,9.50
2018-02-03T02:55:36.661Z,4.20
2018-02-03T02:58:06.967Z,4.60
2018-02-03T03:00:37.707Z,8.20
2018-02-03T03:04:37.132Z,6.37
2018-02-03T03:07:07.536Z,5.03
2018-02-03T03:09:37.743Z,5.30
2018-02-03T03:12:08.912Z,6.30
2018-02-03T03:14:39.546Z,5.80
2018-02-03T03:17:09.821Z,4.53
2018-02-03T03:19:41.074Z,5.20
2018-02-03T03:22:12.166Z,6.13
2018-02-03T03:24:42.540Z,7.10
2018-02-03T03:27:12.803Z,5.80
2018-02-03T03:29:43.175Z,3.87
2018-02-03T03:32:14.539Z,4.00
2018-02-03T03:34:44.836Z,10.03
2018-02-03T03:37:15.575Z,6.30
2018-02-03T03:39:45.860Z,4.83
2018-02-03T03:42:16.272Z,4.40
2018-02-03T03:44:46.962Z,3.97
2018-02-03T03:47:18.040Z,3.50
2018-02-03T03:49:48.439Z,3.13
2018-02-03T03:52:19.001Z,7.43
2018-02-03T03:54:49.530Z,5.90
2018-02-03T03:57:21.003Z,4.00
2018-02-03T03:59:50.977Z,6.40
2018-02-03T04:02:21.204Z,5.33
2018-02-03T04:04:51.429Z,4.37
2018-02-03T04:07:22.327Z,4.80
2018-02-03T04:09:52.664Z,4.33
2018-02-03T04:12:23.308Z,8.03
2018-02-03T04:14:53.563Z,4.70
2018-02-03T04:17:24.045Z,5.43
2018-02-03T04:19:54.880Z,3.40
2018-02-03T04:22:26.151Z,2.73
2018-02-03T04:24:56.390Z,3.47
2018-02-03T04:27:27.419Z,7.70
2018-02-03T04:29:57.595Z,2.60
2018-02-03T04:32:29.045Z,5.70
2018-02-03T04:34:59.999Z,6.60
2018-02-03T04:37:30.107Z,3.73
2018-02-03T04:40:00.272Z,2.73
2018-02-03T04:42:30.809Z,2.23
2018-02-03T04:45:02.572Z,3.23
2018-02-03T04:47:32.848Z,5.63
2018-02-03T04:50:03.171Z,4.43
2018-02-03T04:52:34.119Z,2.77
2018-02-03T04:55:04.687Z,2.70
2018-02-03T04:57:35.087Z,2.10
2018-02-03T05:00:05.407Z,7.17
2018-02-03T05:02:36.231Z,6.00
2018-02-03T05:05:07.105Z,7.80
2018-02-03T05:07:37.668Z,2.77
2018-02-03T05:10:08.653Z,5.10
2018-02-03T05:12:39.648Z,5.40
2018-02-03T05:15:10.691Z,2.90
2018-02-03T05:17:41.052Z,2.53
2018-02-03T05:20:11.469Z,4.83
2018-02-03T05:22:41.852Z,5.10
2018-02-03T05:25:11.998Z,5.87
2018-02-03T05:29:11.142Z,2.90
2018-02-03T05:31:41.327Z,4.53
2018-02-03T05:34:12.069Z,3.07
2018-02-03T05:36:42.889Z,3.97
2018-02-03T05:39:14.195Z,6.37
2018-02-03T05:41:44.498Z,5.23
2018-02-03T05:44:14.860Z,5.60
2018-02-03T05:46:45.415Z,4.40
2018-02-03T05:49:16.528Z,4.63
2018-02-03T05:51:46.572Z,4.83
2018-02-03T05:54:17.032Z,2.03
2018-02-03T05:56:47.220Z,6.07
2018-02-03T05:59:17.543Z,3.60
2018-02-03T06:01:48.822Z,7.50
2018-02-03T06:04:19.220Z,3.70
2018-02-03T06:06:49.338Z,3.00
2018-02-03T06:09:19.594Z,10.50
2018-02-03T06:11:50.855Z,5.27
2018-02-03T06:14:21.556Z,5.20
2018-02-03T06:16:51.536Z,8.00
2018-02-03T06:19:22.494Z,4.20
2018-02-03T06:21:53.946Z,2.60
2018-02-03T06:24:25.306Z,5.20
2018-02-03T06:26:55.707Z,4.63
2018-02-03T06:29:26.734Z,3.57
2018-02-03T06:31:57.288Z,4.00
2018-02-03T06:34:27.618Z,5.07
2018-02-03T06:36:57.897Z,4.53
2018-02-03T06:39:29.428Z,3.30
2018-02-03T06:42:00.086Z,3.87
2018-02-03T06:44:30.948Z,5.53
2018-02-03T06:47:01.175Z,3.70
2018-02-03T06:49:31.328Z,6.83
2018-02-03T06:52:01.486Z,2.33
2018-02-03T06:54:31.672Z,4.90
2018-02-03T06:57:02.312Z,5.40
2018-02-03T06:59:32.679Z,8.63
2018-02-03T07:02:03.169Z,5.20
2018-02-03T07:04:33.491Z,4.50
2018-02-03T07:07:09.120Z,3.00
2018-02-03T07:09:46.632Z,4.80
2018-02-03T07:12:18.299Z,6.63
2018-02-03T07:14:49.898Z,3.40
2018-02-03T07:17:21.866Z,5.40
2018-02-03T07:19:52.072Z,8.27
2018-02-03T07:22:22.454Z,6.03
2018-02-03T07:24:52.702Z,3.70
2018-02-03T07:27:23.187Z,7.00
2018-02-03T07:29:53.661Z,4.07
2018-02-03T07:32:25.122Z,4.17
2018-02-03T07:34:55.962Z,3.70
2018-02-03T07:37:26.356Z,6.47
2018-02-03T07:39:56.964Z,5.50
2018-02-03T07:42:27.555Z,11.13
2018-02-03T07:44:58.644Z,3.13
2018-02-03T07:47:28.687Z,6.10
2018-02-03T07:49:59.171Z,4.53
2018-02-03T07:52:29.883Z,2.57
2018-02-03T07:55:00.237Z,3.77
2018-02-03T07:57:30.647Z,6.07
2018-02-03T08:00:00.939Z,5.30
2018-02-03T08:02:31.475Z,7.50
2018-02-03T08:05:01.917Z,10.63
2018-02-03T08:07:32.379Z,3.40
2018-02-03T08:10:02.481Z,6.37
2018-02-03T08:12:33.315Z,7.23
2018-02-03T08:15:03.647Z,8.40
2018-02-03T08:17:34.787Z,3.57
2018-02-03T08:20:07.176Z,6.53
2018-02-03T08:22:38.024Z,6.43
2018-02-03T08:26:38.475Z,4.40
2018-02-03T08:29:09.707Z,5.73
2018-02-03T08:31:40.825Z,7.20
2018-02-03T08:34:11.025Z,4.17
2018-02-03T08:36:41.511Z,6.30
2018-02-03T08:39:11.680Z,6.93
2018-02-03T08:41:42.011Z,6.10
2018-02-03T08:44:12.232Z,24.17
2018-02-03T08:46:45.270Z,9.93
2018-02-03T08:49:15.877Z,8.03
2018-02-03T08:51:46.107Z,7.07
2018-02-03T08:54:16.780Z,7.70
2018-02-03T08:56:47.336Z,8.93
2018-02-03T08:59:17.502Z,8.40
2018-02-03T09:01:47.574Z,10.97
2018-02-03T09:04:18.204Z,7.03
2018-02-03T09:06:48.648Z,7.60
2018-02-03T09:09:19.313Z,6.00
2018-02-03T09:11:59.358Z,6.97
2018-02-03T09:14:30.364Z,6.70
2018-02-03T09:17:00.734Z,11.50
2018-02-03T09:19:30.889Z,10.33
2018-02-03T09:22:01.015Z,18.00
2018-02-03T09:24:31.265Z,11.07
2018-02-03T09:27:02.185Z,6.83
2018-02-03T09:29:32.242Z,8.53
2018-02-03T09:32:02.265Z,12.80
2018-02-03T09:34:32.336Z,9.03
2018-02-03T09:37:03.341Z,7.23
2018-02-03T09:39:34.271Z,8.00
2018-02-03T09:42:04.317Z,8.00
2018-02-03T09:44:34.617Z,7.73
2018-02-03T09:47:04.692Z,11.80
2018-02-03T09:49:35.918Z,8.20
2018-02-03T09:52:06.061Z,7.10
2018-02-03T09:54:37.864Z,7.10
2018-02-03T09:57:08.248Z,5.30
2018-02-03T09:59:39.076Z,5.10
2018-02-03T10:02:10.561Z,5.43
2018-02-03T10:04:40.787Z,5.23
2018-02-03T10:07:10.832Z,4.23
2018-02-03T10:09:41.275Z,11.80
2018-02-03T10:12:11.630Z,9.80
2018-02-03T10:14:41.924Z,8.20
2018-02-03T10:17:12.931Z,5.20
2018-02-03T10:19:43.223Z,8.10
2018-02-03T10:22:13.307Z,3.53
2018-02-03T10:24:44.147Z,6.37
2018-02-03T10:27:14.742Z,5.80
2018-02-03T10:29:45.865Z,5.40
2018-02-03T10:32:16.007Z,12.43
2018-02-03T10:34:46.169Z,6.77
2018-02-03T10:37:17.484Z,10.47
2018-02-03T10:39:47.663Z,10.10
2018-02-03T10:42:17.948Z,11.30
2018-02-03T10:44:48.032Z,9.10
2018-02-03T10:47:18.519Z,13.27
2018-02-03T10:49:48.632Z,8.67
2018-02-03T10:52:19.736Z,9.47
2018-02-03T10:54:49.795Z,11.93
2018-02-03T10:57:20.223Z,11.80
2018-02-03T10:59:50.388Z,11.63
2018-02-03T11:02:20.513Z,9.63
2018-02-03T11:04:50.840Z,12.30
2018-02-03T11:07:21.180Z,11.77
2018-02-03T11:09:51.329Z,13.23
2018-02-03T11:12:23.003Z,10.43
2018-02-03T11:14:56.463Z,10.90
2018-02-03T11:17:27.408Z,9.80
2018-02-03T11:19:57.569Z,12.30
2018-02-03T11:22:27.632Z,13.37
2018-02-03T11:24:58.159Z,10.40
2018-02-03T11:27:28.312Z,16.10
2018-02-03T11:29:58.336Z,30.87
2018-02-03T11:32:31.992Z,11.70
2018-02-03T11:35:02.254Z,7.00
2018-02-03T11:37:32.452Z,10.30
2018-02-03T11:40:06.004Z,11.30
2018-02-03T11:42:36.681Z,10.70
2018-02-03T11:45:07.632Z,11.53
2018-02-03T11:47:39.020Z,8.60
2018-02-03T11:50:09.135Z,7.30
2018-02-03T11:52:39.397Z,9.23
2018-02-03T11:55:11.220Z,10.93
2018-02-03T11:57:41.334Z,8.43
2018-02-03T12:00:12.848Z,10.13
2018-02-03T12:02:43.125Z,9.20
2018-02-03T12:05:14.421Z,12.67
2018-02-03T12:07:45.441Z,12.10
2018-02-03T12:10:16.475Z,14.33
2018-02-03T12:12:47.892Z,17.60
2018-02-03T12:15:18.295Z,13.03
2018-02-03T12:17:49.793Z,11.47
2018-02-03T12:20:19.994Z,20.93
2018-02-03T12:22:51.172Z,10.53
2018-02-03T12:25:22.578Z,17.03
2018-02-03T12:27:52.724Z,15.47
2018-02-03T12:30:25.100Z,11.10
2018-02-03T12:32:55.426Z,12.50
2018-02-03T12:35:26.852Z,17.53
2018-02-03T12:37:58.821Z,9.97
2018-02-03T12:40:30.147Z,13.87
2018-02-03T12:43:01.349Z,18.97
2018-02-03T12:45:33.656Z,15.63
2018-02-03T12:48:03.971Z,19.73
2018-02-03T12:50:34.069Z,10.70
2018-02-03T12:53:05.194Z,12.50
2018-02-03T12:55:37.443Z,14.63
2018-02-03T12:58:08.680Z,10.17
2018-02-03T13:00:39.764Z,12.80
2018-02-03T13:03:10.620Z,11.50
2018-02-03T13:05:40.777Z,9.70
2018-02-03T13:08:12.598Z,15.73
2018-02-03T13:10:42.816Z,12.40
2018-02-03T13:13:14.260Z,15.53
2018-02-03T13:15:45.372Z,13.50
2018-02-03T13:18:15.804Z,17.07
2018-02-03T13:20:46.522Z,14.37
2018-02-03T13:23:18.947Z,20.00
2018-02-03T13:25:49.391Z,16.07
2018-02-03T13:28:19.531Z,17.97
2018-02-03T13:30:50.341Z,11.70
2018-02-03T13:33:21.259Z,10.40
2018-02-03T13:35:53.432Z,13.63
2018-02-03T13:38:23.674Z,15.67
2018-02-03T13:40:54.168Z,16.20
2018-02-03T13:43:24.280Z,12.93
2018-02-03T13:45:55.652Z,17.93
2018-02-03T13:48:26.632Z,17.17
2018-02-03T13:50:56.794Z,18.03
2018-02-03T13:53:28.252Z,18.17
2018-02-03T13:55:58.616Z,12.40
2018-02-03T13:58:29.040Z,11.80
2018-02-03T14:00:59.238Z,19.77
2018-02-03T14:03:29.351Z,15.23
2018-02-03T14:05:59.508Z,14.43
2018-02-03T14:08:29.699Z,16.03
2018-02-03T14:11:01.090Z,26.53
2018-02-03T14:13:32.395Z,19.43
2018-02-03T14:16:02.605Z,19.50
2018-02-03T14:18:33.433Z,14.00
2018-02-03T14:21:03.778Z,14.93
2018-02-03T14:23:34.984Z,19.93
2018-02-03T14:26:11.437Z,24.40
2018-02-03T14:28:43.462Z,29.43
2018-02-03T14:31:14.384Z,19.60
2018-02-03T14:33:44.984Z,20.53
2018-02-03T14:36:16.112Z,24.13
2018-02-03T14:38:47.306Z,21.80
2018-02-03T14:41:18.614Z,17.60
2018-02-03T14:43:49.670Z,15.50
2018-02-03T14:46:21.305Z,15.33
2018-02-03T14:48:53.821Z,12.97
2018-02-03T14:51:25.130Z,10.60
2018-02-03T14:53:56.124Z,10.73
2018-02-03T14:56:26.933Z,11.30
2018-02-03T14:58:58.919Z,5.70
2018-02-03T15:01:29.086Z,5.13
2018-02-03T15:03:59.664Z,3.50
2018-02-03T15:06:29.829Z,5.67
2018-02-03T15:09:00.117Z,4.70
2018-02-03T15:11:30.741Z,5.37
2018-02-03T15:14:00.928Z,4.87
2018-02-03T15:16:31.965Z,3.60
2018-02-03T15:19:03.040Z,4.60
2018-02-03T15:21:33.224Z,5.70
2018-02-03T15:24:04.351Z,5.97
2018-02-03T15:26:36.346Z,4.10
2018-02-03T15:30:10.744Z,5.80
2018-02-03T15:32:51.894Z,6.80
2018-02-03T15:35:32.625Z,7.33
2018-02-03T15:38:03.907Z,6.10
2018-02-03T15:40:34.761Z,7.07
2018-02-03T15:47:35.616Z,8.93
2018-02-03T15:50:05.805Z,4.67
2018-02-03T15:52:37.526Z,6.43
2018-02-03T15:55:09.173Z,6.43
2018-02-03T15:57:39.605Z,8.63
2018-02-03T16:00:10.923Z,7.10
2018-02-03T16:02:43.980Z,10.37
2018-02-03T16:05:14.288Z,6.00
2018-02-03T16:07:46.144Z,6.53
2018-02-03T16:10:16.458Z,5.43
2018-02-03T16:12:47.379Z,8.87
2018-02-03T16:15:18.930Z,6.60
2018-02-03T16:18:01.563Z,4.90
2018-02-03T16:25:05.011Z,4.87
2018-02-03T16:27:46.793Z,8.30
2018-02-03T16:30:18.052Z,9.23
2018-02-03T16:32:51.376Z,6.80
2018-02-03T16:35:22.550Z,9.10
2018-02-03T16:37:54.364Z,5.20
2018-02-03T16:40:24.789Z,6.03
2018-02-03T16:42:54.903Z,5.27
2018-02-03T16:45:26.292Z,5.60
2018-02-03T16:47:58.393Z,6.37
2018-02-03T16:50:29.184Z,7.60
2018-02-03T16:53:03.291Z,5.03
2018-02-03T16:55:34.471Z,6.03
2018-02-03T16:58:06.164Z,6.57
2018-02-03T17:00:36.906Z,6.30
2018-02-03T17:03:08.524Z,7.70
2018-02-03T17:05:39.005Z,11.63
2018-02-03T17:08:09.120Z,9.70
2018-02-03T17:10:42.188Z,8.60
2018-02-03T17:13:13.249Z,10.40
2018-02-03T17:15:45.937Z,8.53
2018-02-03T17:18:17.479Z,10.67
2018-02-03T17:20:47.751Z,8.50
2018-02-03T17:23:18.226Z,8.57
2018-02-03T17:25:49.367Z,9.00
2018-02-03T17:28:20.190Z,8.47
2018-02-03T17:30:51.047Z,8.90
2018-02-03T17:33:24.037Z,9.83
2018-02-03T17:35:54.796Z,13.97
2018-02-03T17:38:41.468Z,10.20
2018-02-03T17:41:14.307Z,7.17
2018-02-03T17:43:45.861Z,10.77
2018-02-03T17:47:21.003Z,10.60
2018-02-03T17:49:52.242Z,11.50
2018-02-03T17:52:23.958Z,9.70
2018-02-03T17:54:57.086Z,8.70
2018-02-03T17:57:58.655Z,9.30
2018-02-03T18:00:30.151Z,9.70
2018-02-03T18:03:00.526Z,7.50
2018-02-03T18:05:33.062Z,12.90
2018-02-03T18:08:06.332Z,10.50
2018-02-03T18:10:38.155Z,7.00
2018-02-03T18:13:09.018Z,7.10
2018-02-03T18:15:42.738Z,9.90
2018-02-03T18:18:14.764Z,9.23
2018-02-03T18:20:46.170Z,12.33
2018-02-03T18:23:22.768Z,12.57
2018-02-03T18:25:53.159Z,10.30
2018-02-03T18:28:25.021Z,10.77
2018-02-03T18:30:59.042Z,8.13
2018-02-03T18:33:32.032Z,10.33
2018-02-03T18:36:03.859Z,9.30
2018-02-03T18:38:35.329Z,10.23
2018-02-03T18:41:07.210Z,8.77
2018-02-03T18:43:37.739Z,7.97
2018-02-03T18:46:07.883Z,9.30
2018-02-03T18:48:38.957Z,10.93
2018-02-03T18:51:10.313Z,11.70
2018-02-03T18:53:41.852Z,10.47
2018-02-03T18:56:12.756Z,11.27
2018-02-03T18:58:44.684Z,11.20
2018-02-03T19:01:15.060Z,11.83
2018-02-03T19:03:45.347Z,12.03
2018-02-03T19:06:15.518Z,9.23
2018-02-03T19:08:46.960Z,5.93
2018-02-03T19:11:17.244Z,9.27
2018-02-03T19:13:47.459Z,12.73
2018-02-03T19:16:19.428Z,9.20
2018-02-03T19:18:49.864Z,9.60
2018-02-03T19:21:20.649Z,10.30
2018-02-03T19:23:50.903Z,6.30
2018-02-03T19:26:21.060Z,6.37
2018-02-03T19:28:53.119Z,8.87
2018-02-03T19:31:24.856Z,7.70
2018-02-03T19:33:55.798Z,9.07
2018-02-03T19:36:26.806Z,9.73
2018-02-03T19:38:58.752Z,6.53
2018-02-03T19:41:29.482Z,9.00
2018-02-03T19:44:00.906Z,10.23
2018-02-03T19:46:32.112Z,9.20
2018-02-03T19:49:04.801Z,9.77
2018-02-03T19:51:35.774Z,8.53
2018-02-03T19:54:07.936Z,10.67
2018-02-03T19:56:38.758Z,8.17
2018-02-03T19:59:09.989Z,10.13
2018-02-03T20:01:40.510Z,10.40
2018-02-03T20:04:11.710Z,7.93
2018-02-03T20:06:42.464Z,10.17
2018-02-03T20:09:16.071Z,8.90
2018-02-03T20:11:47.292Z,9.80
2018-02-03T20:14:18.423Z,9.60
2018-02-03T20:16:49.366Z,7.87
2018-02-03T20:19:20.929Z,13.30
2018-02-03T20:21:53.213Z,13.83
2018-02-03T20:24:25.092Z,12.43
2018-02-03T20:26:55.346Z,8.77
2018-02-03T20:29:27.384Z,10.17
2018-02-03T20:31:58.567Z,10.97
2018-02-03T20:34:28.888Z,11.27
2018-02-03T20:37:00.088Z,9.70
2018-02-03T20:39:31.131Z,6.77
2018-02-03T20:42:03.480Z,11.97
2018-02-03T20:44:34.580Z,10.40
2018-02-03T20:47:05.572Z,10.03
2018-02-03T20:49:35.921Z,7.10
2018-02-03T20:52:07.871Z,6.90
2018-02-03T20:54:38.117Z,7.53
2018-02-03T20:57:08.455Z,10.37
2018-02-03T20:59:42.484Z,8.47
2018-02-03T21:02:15.114Z,8.60
2018-02-03T21:04:46.443Z,7.53
2018-02-03T21:07:20.291Z,10.00
2018-02-03T21:09:51.353Z,10.53
2018-02-03T21:12:22.336Z,9.33
2018-02-03T21:14:52.729Z,10.40
2018-02-03T21:17:24.243Z,9.80
2018-02-03T21:21:24.568Z,11.47
2018-02-03T21:23:54.921Z,9.83
2018-02-03T21:26:25.616Z,9.37
2018-02-03T21:28:56.747Z,7.37
2018-02-03T21:31:26.999Z,10.00
2018-02-03T21:33:58.267Z,11.83
2018-02-03T21:36:28.507Z,22.37
2018-02-03T21:39:00.844Z,8.90
2018-02-03T21:41:32.972Z,8.90
2018-02-03T21:44:03.301Z,9.83
2018-02-03T21:46:34.075Z,7.07
2018-02-03T21:49:05.267Z,8.50
2018-02-03T21:54:12.328Z,7.80
2018-02-03T21:56:44.456Z,8.20
2018-02-03T21:59:15.589Z,16.77
2018-02-03T22:01:45.816Z,9.77
2018-02-03T22:04:18.408Z,7.27
2018-02-03T22:09:15.737Z,11.27
2018-02-03T22:11:52.711Z,10.17
2018-02-03T22:14:25.916Z,10.87
2018-02-03T22:16:56.692Z,12.03
2018-02-03T22:19:27.961Z,13.30
2018-02-03T22:21:58.966Z,10.57
2018-02-03T22:24:29.861Z,10.33
2018-02-03T22:27:01.447Z,12.30
2018-02-03T22:29:31.570Z,16.60
2018-02-03T22:32:03.536Z,16.53
2018-02-03T22:34:34.490Z,17.10
2018-02-03T22:37:06.273Z,13.70
2018-02-03T22:39:36.650Z,13.40
2018-02-03T22:42:08.123Z,9.30
2018-02-03T22:44:38.688Z,13.57
2018-02-03T22:47:08.860Z,11.50
2018-02-03T22:49:39.401Z,13.50
2018-02-03T22:52:10.416Z,11.00
2018-02-03T22:54:40.732Z,12.53
2018-02-03T22:57:11.712Z,11.10
2018-02-03T22:59:42.702Z,9.53
2018-02-03T23:02:17.454Z,8.40
2018-02-03T23:04:47.897Z,10.87
2018-02-03T23:07:21.021Z,8.93
2018-02-03T23:09:52.900Z,8.73
2018-02-03T23:12:23.436Z,6.87
2018-02-03T23:14:53.661Z,10.70
2018-02-03T23:17:25.020Z,7.77
2018-02-03T23:19:55.395Z,8.07
2018-02-03T23:22:27.487Z,8.20
2018-02-03T23:24:57.551Z,9.87
2018-02-03T23:27:28.232Z,8.23
2018-02-03T23:29:58.557Z,5.97
2018-02-03T23:32:29.281Z,8.93
2018-02-03T23:34:59.976Z,8.40
2018-02-03T23:37:31.363Z,5.83
2018-02-03T23:40:01.461Z,6.47
2018-02-03T23:42:31.485Z,7.57
2018-02-03T23:45:03.813Z,5.83
2018-02-03T23:47:34.467Z,6.97
2018-02-03T23:50:05.379Z,7.13
2018-02-03T23:52:36.292Z,8.20
2018-02-03T23:55:06.869Z,7.27
2018-02-03T23:57:37.374Z,6.20
